Terminal Aerodrome Forecast
Issued by NWS

Home | Current Version | Previous Version | Graphics & Text | Print | Product List | Glossary On
Versions: 1 2 3 4 5 6 7 8 9 10 11 12 13
000
FTUS43 KIWX 311120
TAFSBN
TAF
KSBN 311120Z 3112/0112 27006KT P6SM SKC
     FM311700 28013G20KT P6SM SCT070
     FM312300 30008KT P6SM FEW060=

USA.gov is the U.S. government's official web portal to all federal, state and local government web resources and services.